Time;durP1;ratioP1;P1;durP2;ratioP2;P2;SDS_P1;SDS_P2;PMS_P1;PMS_P2;Temp;Humidity;BMP_temperature;BMP_pressure;BME280_temperature;BME280_humidity;BME280_pressure;Samples;Min_cycle;Max_cycle;Signal;HPM_P1;HPM_P2
2022/06/09 00:01:24;;;;;;;16.20;3.20;;;16.50;99.90;;;;;;4958852;28;20277;-89
2022/06/09 00:04:27;;;;;;;18.00;3.40;;;16.50;99.90;;;;;;4958157;28;20189;-89
2022/06/09 00:06:59;;;;;;;13.73;2.90;;;16.60;99.90;;;;;;4882160;29;20192;-89
2022/06/09 00:09:35;;;;;;;15.67;3.00;;;16.60;99.90;;;;;;4948146;28;20196;-89
2022/06/09 00:12:01;;;;;;;17.87;3.60;;;16.50;99.90;;;;;;4958758;28;20191;-89
2022/06/09 00:14:27;;;;;;;19.00;3.67;;;16.50;99.90;;;;;;4958915;28;20183;-89
2022/06/09 00:16:53;;;;;;;18.43;3.37;;;16.50;99.90;;;;;;4969543;28;20293;-90
2022/06/09 00:19:19;;;;;;;15.87;3.07;;;16.50;99.90;;;;;;4970095;28;20237;-89
2022/06/09 00:21:45;;;;;;;21.73;3.57;;;16.50;99.90;;;;;;4965046;28;20179;-89
2022/06/09 00:24:12;;;;;;;16.37;2.83;;;16.50;99.90;;;;;;4957743;28;20492;-89
2022/06/09 00:26:38;;;;;;;15.00;3.80;;;16.30;99.90;;;;;;4958040;28;20180;-89
2022/06/09 00:29:05;;;;;;;15.27;3.67;;;16.30;99.90;;;;;;4957893;28;20205;-89
2022/06/09 00:31:31;;;;;;;14.50;3.30;;;16.30;99.90;;;;;;4958261;28;20271;-89
2022/06/09 00:33:57;;;;;;;20.57;3.37;;;16.20;99.90;;;;;;4957902;28;20201;-89
2022/06/09 00:36:23;;;;;;;17.83;3.43;;;16.20;99.90;;;;;;4957648;28;20197;-89
2022/06/09 00:38:48;;;;;;;14.63;3.53;;;16.20;99.90;;;;;;4957897;28;20213;-89
2022/06/09 00:41:14;;;;;;;16.57;3.37;;;16.20;99.90;;;;;;4957667;28;20182;-89
2022/06/09 00:43:42;;;;;;;16.30;4.13;;;16.30;99.90;;;;;;4957709;28;20193;-89
2022/06/09 00:46:19;;;;;;;16.63;3.33;;;16.30;99.90;;;;;;4957955;28;20187;-90
2022/06/09 00:49:04;;;;;;;25.33;3.70;;;16.30;99.90;;;;;;4957551;28;20183;-89
2022/06/09 00:51:43;;;;;;;13.37;3.53;;;16.30;99.90;;;;;;4956990;28;20658;-89
2022/06/09 00:54:14;;;;;;;15.90;3.23;;;16.30;99.90;;;;;;4957539;28;20272;-89
2022/06/09 00:57:00;;;;;;;14.43;3.40;;;16.30;99.90;;;;;;4957544;28;20191;-90
2022/06/09 00:59:27;;;;;;;15.17;3.20;;;16.30;99.90;;;;;;4918400;28;20224;-89
2022/06/09 01:01:54;;;;;;;19.97;3.93;;;16.20;99.90;;;;;;4957425;28;20181;-89
2022/06/09 01:04:22;;;;;;;15.57;3.30;;;16.20;99.90;;;;;;4957816;28;20186;-89
2022/06/09 01:06:52;;;;;;;13.30;3.20;;;16.20;99.90;;;;;;4957649;28;20277;-89
2022/06/09 01:09:23;;;;;;;19.30;3.53;;;16.10;99.90;;;;;;4956868;28;20185;-88
2022/06/09 01:11:51;;;;;;;16.73;3.67;;;16.10;99.90;;;;;;4956452;28;20182;-89
2022/06/09 01:14:20;;;;;;;15.53;3.23;;;16.20;99.90;;;;;;4957271;28;20251;-89
2022/06/09 01:17:08;;;;;;;19.53;3.70;;;16.00;99.90;;;;;;4956512;28;20177;-88
2022/06/09 01:19:55;;;;;;;17.87;3.43;;;16.00;99.90;;;;;;4956877;28;20217;-89
2022/06/09 01:22:36;;;;;;;25.97;4.33;;;16.00;99.90;;;;;;4956151;28;20204;-89
2022/06/09 01:25:26;;;;;;;16.53;3.50;;;15.90;99.90;;;;;;4956573;28;20179;-89
2022/06/09 01:28:06;;;;;;;17.77;3.67;;;15.90;99.90;;;;;;4957303;28;20622;-89
2022/06/09 01:30:42;;;;;;;21.10;3.67;;;16.00;99.90;;;;;;4957316;28;20269;-89
2022/06/09 01:33:14;;;;;;;25.53;4.33;;;16.00;99.90;;;;;;4956984;28;20677;-88
2022/06/09 01:35:51;;;;;;;19.63;3.67;;;15.90;99.90;;;;;;4956833;28;20206;-89
2022/06/09 01:38:17;;;;;;;20.07;3.43;;;15.90;99.90;;;;;;4957072;28;20208;-89
2022/06/09 01:40:43;;;;;;;20.47;4.30;;;15.90;99.90;;;;;;4956854;28;20201;-89
2022/06/09 01:43:09;;;;;;;23.00;3.87;;;15.80;99.90;;;;;;4956652;28;20648;-88
2022/06/09 01:46:02;;;;;;;21.50;4.07;;;16.00;99.90;;;;;;4956765;28;20188;-89
2022/06/09 01:48:30;;;;;;;14.17;3.40;;;16.00;99.90;;;;;;4957289;28;20204;-89
2022/06/09 01:51:11;;;;;;;12.47;2.77;;;15.90;99.90;;;;;;4956933;28;20193;-90
2022/06/09 01:54:21;;;;;;;20.87;3.70;;;15.90;99.90;;;;;;4956372;28;20177;-92
2022/06/09 01:56:49;;;;;;;20.97;4.10;;;16.00;99.90;;;;;;4972564;28;20180;-90
2022/06/09 01:59:32;;;;;;;21.10;3.90;;;16.00;99.90;;;;;;4956669;28;20204;-91
2022/06/09 02:02:04;;;;;;;24.53;4.27;;;15.80;99.90;;;;;;4956802;28;20191;-90
2022/06/09 02:04:40;;;;;;;16.77;4.17;;;15.70;99.90;;;;;;4956987;28;20665;-91
2022/06/09 02:07:08;;;;;;;16.30;3.73;;;15.60;99.90;;;;;;4957072;28;20268;-92
2022/06/09 02:09:37;;;;;;;25.33;4.93;;;15.60;99.90;;;;;;4956984;28;20172;-91
2022/06/09 02:12:06;;;;;;;27.83;4.67;;;15.70;99.90;;;;;;4956159;28;20181;-90
2022/06/09 02:14:32;;;;;;;22.67;3.80;;;15.70;99.90;;;;;;4955934;28;20743;-90
2022/06/09 02:16:58;;;;;;;23.77;5.30;;;15.80;99.90;;;;;;4956753;28;20192;-90
2022/06/09 02:19:26;;;;;;;21.70;4.17;;;15.80;99.90;;;;;;4956510;28;20214;-90
2022/06/09 02:21:52;;;;;;;20.70;4.67;;;15.60;99.90;;;;;;4956410;28;20177;-90
2022/06/09 02:24:18;;;;;;;19.93;4.23;;;15.60;99.90;;;;;;4957245;28;20705;-90
2022/06/09 02:26:44;;;;;;;15.47;3.90;;;15.50;99.90;;;;;;4955638;28;20197;-90
2022/06/09 02:29:09;;;;;;;17.10;3.97;;;15.50;99.90;;;;;;4960533;28;20185;-90
2022/06/09 02:31:35;;;;;;;19.70;3.83;;;15.50;99.90;;;;;;4960243;28;20235;-90
2022/06/09 02:34:02;;;;;;;18.60;3.90;;;15.50;99.90;;;;;;4959713;28;20677;-90
2022/06/09 02:36:28;;;;;;;18.40;4.70;;;15.50;99.90;;;;;;4959263;28;20583;-90
2022/06/09 02:38:53;;;;;;;21.97;4.07;;;15.50;99.90;;;;;;4958789;28;20241;-91
2022/06/09 02:41:19;;;;;;;19.87;3.67;;;15.50;99.90;;;;;;4959919;28;20194;-90
2022/06/09 02:43:45;;;;;;;19.40;4.33;;;15.50;99.90;;;;;;4960116;28;20538;-90
2022/06/09 02:46:11;;;;;;;14.30;4.70;;;15.50;99.90;;;;;;4960139;28;20220;-90
2022/06/09 02:48:36;;;;;;;17.87;3.90;;;15.40;99.90;;;;;;4960218;28;20193;-91
2022/06/09 02:51:23;;;;;;;22.00;4.43;;;15.40;99.90;;;;;;4960204;28;20186;-93
2022/06/09 02:53:49;;;;;;;21.50;5.20;;;15.40;99.90;;;;;;4959786;28;20306;-92
2022/06/09 02:56:15;;;;;;;22.43;3.97;;;15.40;99.90;;;;;;4959879;28;20182;-91
2022/06/09 02:58:41;;;;;;;16.57;3.80;;;15.30;99.90;;;;;;4959330;28;20214;-91
2022/06/09 03:01:07;;;;;;;21.03;4.03;;;15.30;99.90;;;;;;4959195;28;20199;-91
2022/06/09 03:03:33;;;;;;;21.47;4.40;;;15.30;99.90;;;;;;4959411;28;20272;-90
2022/06/09 03:05:59;;;;;;;13.50;4.07;;;15.30;99.90;;;;;;4959419;28;20295;-91
2022/06/09 03:08:26;;;;;;;22.17;4.00;;;15.20;99.90;;;;;;4959912;28;20552;-90
2022/06/09 03:10:52;;;;;;;20.40;4.63;;;15.20;99.90;;;;;;4959225;28;20190;-90
2022/06/09 03:13:18;;;;;;;22.80;4.70;;;15.20;99.90;;;;;;4958582;28;20193;-91
2022/06/09 03:15:47;;;;;;;21.53;4.60;;;15.10;99.90;;;;;;4958753;28;20212;-90
2022/06/09 03:18:14;;;;;;;16.63;3.50;;;15.10;99.90;;;;;;4959320;28;20197;-90
2022/06/09 03:20:40;;;;;;;19.97;3.90;;;15.20;99.90;;;;;;4959126;28;20217;-90
2022/06/09 03:23:06;;;;;;;18.10;4.17;;;15.30;99.90;;;;;;4959243;28;20181;-90
2022/06/09 03:25:31;;;;;;;18.83;4.37;;;15.20;99.90;;;;;;4958989;28;20322;-90
2022/06/09 03:27:57;;;;;;;23.60;4.23;;;15.20;99.90;;;;;;4959453;28;20176;-91
2022/06/09 03:30:23;;;;;;;19.43;4.77;;;15.20;99.90;;;;;;4959246;28;20764;-90
2022/06/09 03:32:48;;;;;;;16.20;3.83;;;15.20;99.90;;;;;;4959169;28;20602;-90
2022/06/09 03:35:14;;;;;;;15.43;3.87;;;15.20;99.90;;;;;;4958544;28;20265;-90
2022/06/09 03:37:40;;;;;;;20.90;4.00;;;15.30;99.90;;;;;;4959031;28;20560;-90
2022/06/09 03:40:10;;;;;;;15.87;4.27;;;15.30;99.90;;;;;;4958455;28;20218;-89
2022/06/09 03:42:36;;;;;;;20.77;4.33;;;15.20;99.90;;;;;;4959312;28;20180;-90
2022/06/09 03:45:01;;;;;;;18.67;4.53;;;15.10;99.90;;;;;;4958775;28;20718;-90
2022/06/09 03:47:27;;;;;;;16.67;4.60;;;15.00;99.90;;;;;;4958893;28;20173;-90
2022/06/09 03:49:53;;;;;;;17.20;4.20;;;15.00;99.90;;;;;;4958317;28;20291;-91
2022/06/09 03:52:18;;;;;;;21.17;4.27;;;15.10;99.90;;;;;;4959632;28;20639;-92
2022/06/09 03:54:44;;;;;;;25.73;5.20;;;15.20;99.90;;;;;;4959569;28;20178;-91
2022/06/09 03:57:10;;;;;;;16.73;3.83;;;15.30;99.90;;;;;;4958867;28;20226;-91
2022/06/09 03:59:36;;;;;;;15.10;4.67;;;15.30;99.90;;;;;;4959585;28;20729;-91
2022/06/09 04:02:03;;;;;;;17.37;4.53;;;15.20;99.90;;;;;;4960084;28;20192;-90
2022/06/09 04:04:28;;;;;;;24.77;4.60;;;15.20;99.90;;;;;;4959794;28;20196;-91
2022/06/09 04:06:54;;;;;;;12.37;3.57;;;15.20;99.90;;;;;;4959265;28;20195;-91
2022/06/09 04:09:20;;;;;;;25.03;5.33;;;15.20;99.90;;;;;;4959246;28;20187;-91
2022/06/09 04:11:46;;;;;;;21.13;4.20;;;15.10;99.90;;;;;;4958115;28;20181;-91
2022/06/09 04:14:11;;;;;;;15.37;4.93;;;15.20;99.90;;;;;;4958527;28;20280;-91
2022/06/09 04:16:44;;;;;;;24.37;4.07;;;15.10;99.90;;;;;;4958658;28;20181;-91
2022/06/09 04:19:11;;;;;;;20.53;4.33;;;15.10;99.90;;;;;;4958856;28;20205;-91
2022/06/09 04:21:38;;;;;;;21.67;4.73;;;15.20;99.90;;;;;;4958822;28;20183;-94
2022/06/09 04:24:04;;;;;;;21.17;3.70;;;15.10;99.90;;;;;;4958568;28;20185;-89
2022/06/09 04:26:33;;;;;;;21.23;3.87;;;15.00;99.90;;;;;;4958656;28;20674;-89
2022/06/09 04:28:59;;;;;;;25.67;4.83;;;15.10;99.90;;;;;;4958430;28;20185;-90
2022/06/09 04:31:25;;;;;;;21.03;4.20;;;15.10;99.90;;;;;;4958890;28;20188;-90
2022/06/09 04:33:50;;;;;;;20.13;3.70;;;15.20;99.90;;;;;;4957743;28;20198;-89
2022/06/09 04:36:17;;;;;;;20.57;5.00;;;15.20;99.90;;;;;;4959303;28;20212;-89
2022/06/09 04:39:16;;;;;;;21.40;5.00;;;15.30;99.90;;;;;;4959208;28;20176;-93
2022/06/09 04:41:42;;;;;;;15.63;4.43;;;15.40;99.90;;;;;;4958682;28;20187;-88
2022/06/09 04:44:08;;;;;;;21.53;5.77;;;15.40;99.90;;;;;;4959943;28;20519;-89
2022/06/09 04:46:34;;;;;;;17.77;4.33;;;15.40;99.90;;;;;;4967966;28;20188;-90
2022/06/09 04:49:00;;;;;;;14.93;4.53;;;15.20;99.90;;;;;;4970916;28;20180;-89
2022/06/09 04:51:26;;;;;;;20.63;4.13;;;15.20;99.90;;;;;;4961928;28;20549;-89
2022/06/09 04:53:52;;;;;;;20.60;4.53;;;15.30;99.90;;;;;;4958071;28;20188;-89
2022/06/09 04:56:20;;;;;;;20.90;4.67;;;15.50;99.90;;;;;;4957251;28;20271;-89
2022/06/09 04:58:48;;;;;;;18.60;3.93;;;15.60;99.90;;;;;;4957520;28;20218;-88
2022/06/09 05:01:20;;;;;;;17.70;4.33;;;15.60;99.90;;;;;;4956168;28;20185;-89
2022/06/09 05:03:47;;;;;;;17.37;3.93;;;15.50;99.90;;;;;;4957223;28;20210;-88
2022/06/09 05:06:13;;;;;;;19.43;4.13;;;15.60;99.90;;;;;;4957468;28;20188;-88
2022/06/09 05:08:40;;;;;;;18.83;3.77;;;15.60;99.90;;;;;;4957141;28;20194;-89
2022/06/09 05:11:06;;;;;;;15.43;3.70;;;15.60;99.90;;;;;;4956447;28;20211;-89
2022/06/09 05:13:32;;;;;;;21.30;4.30;;;15.60;99.90;;;;;;4957248;28;20182;-90
2022/06/09 05:15:57;;;;;;;19.73;5.47;;;15.70;99.90;;;;;;4956773;28;20272;-88
2022/06/09 05:18:27;;;;;;;23.17;4.17;;;15.70;99.90;;;;;;4956946;28;20647;-89
2022/06/09 05:20:54;;;;;;;13.03;4.40;;;15.70;99.90;;;;;;4956740;28;20574;-88
2022/06/09 05:23:20;;;;;;;19.07;4.03;;;15.80;99.90;;;;;;4957959;28;20635;-89
2022/06/09 05:25:47;;;;;;;17.13;3.43;;;15.80;99.90;;;;;;4962728;28;20183;-89
2022/06/09 05:28:15;;;;;;;23.73;4.33;;;15.90;99.90;;;;;;4962963;28;20627;-89
2022/06/09 05:30:41;;;;;;;17.77;4.43;;;15.80;99.90;;;;;;4968931;28;20665;-89
2022/06/09 05:33:07;;;;;;;20.63;4.17;;;15.70;99.90;;;;;;4957383;28;20258;-89
2022/06/09 05:35:33;;;;;;;24.27;4.03;;;15.70;99.90;;;;;;4956977;28;20718;-90
2022/06/09 05:46:15;;;;;;;23.17;4.33;;;15.80;99.90;;;;;;4955270;29;20654;-88
2022/06/09 05:48:42;;;;;;;19.60;3.77;;;15.70;99.90;;;;;;4938097;29;20202;-89
2022/06/09 05:51:08;;;;;;;27.60;3.97;;;15.70;99.90;;;;;;4938521;29;20185;-89
2022/06/09 05:53:35;;;;;;;18.43;4.67;;;15.70;99.90;;;;;;4939240;28;20205;-89
2022/06/09 05:56:01;;;;;;;23.47;3.57;;;15.70;99.90;;;;;;4957100;28;20199;-89
2022/06/09 05:58:27;;;;;;;21.97;4.37;;;15.60;99.90;;;;;;4961838;28;20189;-92
2022/06/09 06:00:53;;;;;;;18.60;4.37;;;15.60;99.90;;;;;;4961540;28;20193;-91
2022/06/09 06:03:19;;;;;;;15.30;3.70;;;15.70;99.90;;;;;;4963922;28;20188;-90
2022/06/09 06:08:29;;;;;;;19.20;4.27;;;15.60;99.90;;;;;;4987965;28;20241;-89
2022/06/09 06:10:56;;;;;;;17.97;3.23;;;15.50;99.90;;;;;;4987470;28;20186;-89
2022/06/09 06:13:22;;;;;;;15.93;3.27;;;15.50;99.90;;;;;;4969389;28;20182;-89
2022/06/09 06:15:49;;;;;;;18.17;3.33;;;15.60;99.90;;;;;;4967664;28;20669;-89
2022/06/09 06:18:15;;;;;;;13.23;3.70;;;15.60;99.90;;;;;;4965903;28;20180;-88
2022/06/09 06:20:41;;;;;;;14.57;3.30;;;15.60;99.90;;;;;;4962076;28;20253;-96
2022/06/09 06:23:07;;;;;;;13.43;3.03;;;15.70;99.90;;;;;;4961494;28;20181;-92
2022/06/09 06:25:33;;;;;;;11.17;3.20;;;15.80;99.90;;;;;;4962923;28;20177;-95
2022/06/09 06:28:00;;;;;;;18.77;3.97;;;15.90;99.90;;;;;;4961960;28;20320;-95
2022/06/09 06:30:26;;;;;;;20.43;4.00;;;16.10;99.90;;;;;;4962193;28;20181;-94
2022/06/09 06:32:52;;;;;;;15.37;3.80;;;16.20;99.90;;;;;;4961832;28;20558;-91
2022/06/09 06:35:19;;;;;;;20.50;3.30;;;16.40;99.90;;;;;;4961158;28;20200;-94
2022/06/09 06:37:45;;;;;;;12.70;2.90;;;16.50;99.90;;;;;;4960175;28;20189;-96
2022/06/09 06:40:14;;;;;;;18.93;4.17;;;16.60;99.90;;;;;;4960368;28;20231;-96
2022/06/09 06:42:40;;;;;;;12.73;3.33;;;16.70;99.90;;;;;;4960373;28;20178;-96
2022/06/09 06:45:07;;;;;;;16.17;3.70;;;16.80;99.90;;;;;;4961671;28;20184;-96
2022/06/09 06:47:33;;;;;;;12.60;3.50;;;16.90;99.90;;;;;;4960970;28;20556;-96
2022/06/09 06:49:59;;;;;;;17.73;3.70;;;17.10;99.90;;;;;;4960863;28;20192;-96
2022/06/09 06:52:27;;;;;;;11.97;3.00;;;17.20;99.90;;;;;;4961062;28;20179;-95
2022/06/09 06:54:53;;;;;;;13.33;2.73;;;17.10;99.90;;;;;;4961771;28;20269;-96
2022/06/09 06:57:20;;;;;;;14.27;2.90;;;17.10;99.90;;;;;;4964503;28;20208;-96
2022/06/09 06:59:45;;;;;;;16.70;3.90;;;17.10;99.90;;;;;;4961552;28;20225;-96
2022/06/09 07:02:12;;;;;;;21.63;3.90;;;17.20;99.90;;;;;;4961987;28;20191;-96
2022/06/09 07:04:38;;;;;;;21.10;3.63;;;17.20;99.90;;;;;;4962577;28;20192;-94
2022/06/09 07:07:04;;;;;;;15.33;3.23;;;17.30;99.90;;;;;;4961923;28;20181;-96
2022/06/09 07:09:29;;;;;;;10.70;3.50;;;17.50;99.90;;;;;;4961442;28;20690;-91
2022/06/09 07:11:55;;;;;;;13.43;3.10;;;17.50;99.90;;;;;;4960691;28;20236;-96
2022/06/09 07:14:21;;;;;;;12.80;3.37;;;17.60;99.90;;;;;;4961399;28;20236;-96
2022/06/09 07:16:47;;;;;;;14.93;3.00;;;17.70;99.90;;;;;;4961133;28;20329;-96
2022/06/09 07:19:14;;;;;;;15.67;3.57;;;17.60;99.90;;;;;;4960105;28;20301;-95
2022/06/09 07:21:40;;;;;;;13.90;3.33;;;17.60;99.90;;;;;;4960900;28;20579;-96
2022/06/09 07:24:07;;;;;;;16.90;3.90;;;17.50;99.90;;;;;;4961431;28;20188;-92
2022/06/09 07:26:34;;;;;;;17.47;3.40;;;17.50;99.90;;;;;;4960691;28;20658;-96
2022/06/09 07:29:00;;;;;;;20.23;4.30;;;17.50;99.90;;;;;;4960565;28;20225;-95
2022/06/09 07:31:26;;;;;;;14.37;3.77;;;17.40;99.90;;;;;;4960636;28;20281;-96
2022/06/09 07:33:52;;;;;;;12.50;3.27;;;17.40;99.90;;;;;;4960556;28;20186;-96
2022/06/09 07:36:22;;;;;;;14.27;3.97;;;17.40;99.90;;;;;;4960473;28;20204;-94
2022/06/09 07:38:47;;;;;;;13.10;3.00;;;17.40;99.90;;;;;;4961090;28;20607;-95
2022/06/09 07:41:13;;;;;;;12.63;3.10;;;17.60;99.90;;;;;;4960829;28;20193;-94
2022/06/09 07:43:39;;;;;;;10.07;3.30;;;17.70;99.90;;;;;;4960560;28;20221;-94
2022/06/09 07:46:05;;;;;;;16.03;3.93;;;17.60;99.90;;;;;;4960539;28;20177;-96
2022/06/09 07:48:31;;;;;;;10.30;3.10;;;17.80;99.90;;;;;;4960684;28;20666;-93
2022/06/09 07:50:56;;;;;;;14.57;4.17;;;18.10;99.90;;;;;;4960377;28;20636;-88
2022/06/09 07:53:23;;;;;;;11.27;3.20;;;18.30;99.90;;;;;;4958335;28;20183;-89
2022/06/09 07:55:49;;;;;;;8.90;3.20;;;18.20;99.90;;;;;;4958657;28;20199;-88
2022/06/09 07:58:17;;;;;;;12.40;3.70;;;18.40;99.90;;;;;;4958637;28;20255;-89
2022/06/09 08:00:43;;;;;;;14.33;3.87;;;18.50;99.90;;;;;;4958660;28;20213;-91
2022/06/09 08:03:11;;;;;;;13.40;3.80;;;18.60;99.90;;;;;;4958805;28;20233;-89
2022/06/09 08:05:37;;;;;;;12.00;4.07;;;18.90;99.90;;;;;;4958662;28;20181;-89
2022/06/09 08:08:03;;;;;;;16.07;3.83;;;19.10;99.90;;;;;;4958650;28;20180;-89
2022/06/09 08:10:29;;;;;;;12.63;3.63;;;19.30;99.90;;;;;;4958263;28;20214;-89
2022/06/09 08:12:58;;;;;;;10.17;3.67;;;19.20;99.90;;;;;;4958662;28;20182;-90
2022/06/09 08:15:25;;;;;;;9.90;3.27;;;19.00;99.90;;;;;;4958520;28;20280;-89
2022/06/09 08:17:56;;;;;;;12.50;4.20;;;18.80;99.90;;;;;;4958404;28;20190;-91
2022/06/09 08:20:23;;;;;;;15.00;3.40;;;18.70;99.90;;;;;;4958311;28;20223;-89
2022/06/09 08:22:49;;;;;;;11.10;3.63;;;18.60;99.90;;;;;;4958532;28;20189;-90
2022/06/09 08:25:18;;;;;;;12.40;3.70;;;18.50;99.90;;;;;;4958069;28;20178;-89
2022/06/09 08:27:44;;;;;;;8.37;3.50;;;18.60;99.90;;;;;;4958551;28;20607;-90
2022/06/09 08:30:13;;;;;;;11.40;3.70;;;18.80;99.90;;;;;;4958143;28;20182;-89
2022/06/09 08:32:40;;;;;;;17.13;3.77;;;19.20;99.90;;;;;;4958491;28;20174;-89
2022/06/09 08:35:09;;;;;;;13.27;3.27;;;19.40;99.90;;;;;;4958372;28;20229;-90
2022/06/09 08:37:34;;;;;;;14.47;3.30;;;19.60;99.90;;;;;;4958523;28;20170;-89
2022/06/09 08:40:00;;;;;;;11.70;3.13;;;19.60;99.90;;;;;;4958248;28;20616;-90
2022/06/09 08:43:01;;;;;;;10.40;3.00;;;19.60;99.90;;;;;;4958623;28;20179;-89
2022/06/09 08:45:35;;;;;;;13.93;3.63;;;19.60;99.90;;;;;;4958542;28;20237;-89
2022/06/09 08:48:03;;;;;;;9.13;2.53;;;19.70;99.90;;;;;;4958687;28;20186;-89
2022/06/09 08:50:40;;;;;;;9.60;3.20;;;19.90;99.90;;;;;;4958455;28;20183;-90
2022/06/09 08:53:21;;;;;;;6.77;2.60;;;20.00;99.90;;;;;;4958744;28;20175;-90
2022/06/09 08:55:52;;;;;;;13.67;3.43;;;20.10;99.90;;;;;;4958703;28;20213;-89
2022/06/09 08:58:39;;;;;;;12.03;2.93;;;20.00;99.90;;;;;;4959533;28;20181;-90
2022/06/09 09:01:11;;;;;;;9.17;3.47;;;20.10;99.90;;;;;;4958613;28;20195;-90
2022/06/09 09:03:45;;;;;;;13.83;2.93;;;20.30;99.90;;;;;;4958537;28;20179;-90
2022/06/09 09:06:23;;;;;;;9.60;3.13;;;20.50;99.90;;;;;;4959059;28;20186;-89
2022/06/09 09:08:49;;;;;;;8.57;2.50;;;20.80;99.90;;;;;;4958014;28;20282;-89
2022/06/09 09:11:33;;;;;;;9.83;2.93;;;20.90;99.90;;;;;;4957774;28;20225;-89
2022/06/09 09:14:12;;;;;;;9.27;2.47;;;20.90;99.90;;;;;;4958417;28;20205;-89
2022/06/09 09:16:56;;;;;;;6.93;2.40;;;20.90;99.90;;;;;;4958034;28;20174;-90
2022/06/09 09:19:51;;;;;;;8.57;2.80;;;20.90;99.90;;;;;;4957375;28;20207;-89
2022/06/09 09:22:23;;;;;;;6.83;2.60;;;21.00;99.90;;;;;;4957566;28;20186;-90
2022/06/09 09:24:58;;;;;;;6.63;2.00;;;21.10;99.90;;;;;;4958341;28;20261;-89
2022/06/09 09:27:39;;;;;;;10.37;2.93;;;21.30;99.90;;;;;;4960203;28;20248;-90
2022/06/09 09:30:21;;;;;;;8.63;3.17;;;21.10;99.90;;;;;;4968521;28;20178;-92
2022/06/09 09:32:50;;;;;;;12.30;2.47;;;20.80;99.90;;;;;;4958493;28;20193;-89
2022/06/09 09:35:23;;;;;;;13.23;3.80;;;20.80;99.90;;;;;;4957121;28;20580;-89
2022/06/09 09:37:52;;;;;;;10.43;3.50;;;20.70;99.90;;;;;;4958998;28;20194;-90
2022/06/09 09:40:26;;;;;;;8.43;3.07;;;20.10;99.90;;;;;;4961218;28;20305;-90
2022/06/09 09:42:55;;;;;;;13.13;3.53;;;19.80;99.90;;;;;;4961003;28;20179;-90
2022/06/09 09:45:31;;;;;;;12.87;3.57;;;19.70;99.90;;;;;;4961479;28;20208;-89
2022/06/09 09:48:01;;;;;;;10.17;3.80;;;19.60;99.90;;;;;;4960875;28;20277;-90
2022/06/09 09:50:33;;;;;;;9.07;4.23;;;19.50;99.90;;;;;;4960716;28;20261;-90
2022/06/09 09:53:04;;;;;;;9.30;3.67;;;19.40;99.90;;;;;;4960681;28;20658;-90
2022/06/09 09:55:34;;;;;;;16.70;9.27;;;19.60;99.90;;;;;;4960686;28;20267;-90
2022/06/09 09:58:26;;;;;;;10.73;3.40;;;19.70;99.90;;;;;;4960798;28;20188;-90
2022/06/09 10:01:19;;;;;;;6.87;3.37;;;19.90;99.90;;;;;;4960871;28;20215;-90
2022/06/09 10:09:46;;;;;;;9.20;2.70;;;20.60;99.90;;;;;;4978416;28;20189;-89
2022/06/09 10:12:24;;;;;;;7.90;2.70;;;20.60;99.90;;;;;;4960530;28;20277;-90
2022/06/09 10:15:01;;;;;;;6.27;2.10;;;20.60;99.90;;;;;;4960525;28;20193;-90
2022/06/09 10:17:32;;;;;;;5.87;2.23;;;20.70;99.90;;;;;;4960323;28;20183;-89
2022/06/09 10:20:19;;;;;;;7.30;2.23;;;20.70;99.90;;;;;;4960151;28;20233;-89
2022/06/09 10:23:25;;;;;;;6.87;2.27;;;20.90;99.90;;;;;;4960255;28;20619;-90
2022/06/09 10:26:14;;;;;;;6.47;2.17;;;21.10;99.90;;;;;;4899111;28;20184;-90
2022/06/09 10:29:01;;;;;;;10.10;1.67;;;21.20;99.90;;;;;;4960186;28;20178;-90
2022/06/09 10:31:43;;;;;;;4.97;1.50;;;21.40;99.90;;;;;;4960341;28;20187;-89
2022/06/09 10:34:48;;;;;;;5.77;1.57;;;21.60;99.90;;;;;;4960351;28;20266;-90
2022/06/09 10:37:48;;;;;;;4.60;1.57;;;21.50;99.90;;;;;;4960292;28;20189;-89
2022/06/09 10:40:38;;;;;;;7.97;2.30;;;21.50;99.90;;;;;;4960198;28;20220;-90
2022/06/09 10:43:32;;;;;;;4.33;1.60;;;21.40;99.90;;;;;;4960296;28;20212;-88
2022/06/09 10:46:05;;;;;;;7.87;2.03;;;21.10;99.90;;;;;;4960309;28;20654;-90
2022/06/09 10:57:40;;;;;;;7.00;1.93;;;21.20;99.90;;;;;;4977519;28;20217;-89
2022/06/09 11:00:22;;;;;;;6.67;1.90;;;21.10;99.90;;;;;;4960112;28;20213;-90
2022/06/09 11:02:51;;;;;;;7.00;1.73;;;21.30;99.90;;;;;;4959591;28;20221;-90
2022/06/09 11:05:31;;;;;;;8.37;2.00;;;21.40;99.90;;;;;;4959580;28;20185;-90
2022/06/09 11:07:56;;;;;;;5.83;2.13;;;21.40;99.90;;;;;;4959651;28;20618;-90
2022/06/09 11:10:37;;;;;;;7.77;1.90;;;21.30;99.90;;;;;;4959652;28;20190;-89
2022/06/09 11:13:21;;;;;;;7.10;2.27;;;21.30;99.90;;;;;;4959772;28;20180;-90
2022/06/09 11:15:59;;;;;;;7.80;1.80;;;21.20;99.90;;;;;;4959953;28;20197;-90
2022/06/09 11:18:43;;;;;;;7.13;2.00;;;21.40;99.90;;;;;;4959375;28;20181;-90
2022/06/09 11:21:18;;;;;;;7.27;2.17;;;21.60;99.90;;;;;;4959459;28;20283;-90
2022/06/09 11:24:21;;;;;;;5.43;1.47;;;22.00;99.90;;;;;;4959395;28;20181;-90
2022/06/09 11:26:54;;;;;;;8.50;2.07;;;22.30;99.20;;;;;;4959481;28;20178;-90
2022/06/09 11:29:37;;;;;;;7.83;1.70;;;22.90;98.50;;;;;;4959323;28;20273;-90
2022/06/09 11:32:18;;;;;;;7.73;2.07;;;23.90;97.80;;;;;;4959262;28;20590;-88
2022/06/09 11:34:49;;;;;;;5.60;1.67;;;24.90;95.60;;;;;;4958950;28;20694;-90
2022/06/09 11:37:46;;;;;;;7.87;1.50;;;25.00;94.80;;;;;;4959261;28;20269;-89
2022/06/09 11:40:41;;;;;;;5.37;1.60;;;24.80;95.00;;;;;;4959092;28;20260;-90
2022/06/09 11:43:26;;;;;;;5.53;1.97;;;24.80;94.30;;;;;;4959065;28;20656;-90
2022/06/09 11:46:02;;;;;;;6.00;1.50;;;24.60;94.30;;;;;;4958922;28;20194;-90
2022/06/09 11:48:37;;;;;;;7.80;2.17;;;24.40;94.60;;;;;;4958804;28;20623;-90
2022/06/09 11:51:04;;;;;;;7.03;1.70;;;24.30;95.40;;;;;;4958991;28;20174;-90
2022/06/09 11:53:35;;;;;;;6.13;1.87;;;23.50;95.70;;;;;;4958769;28;20185;-90
2022/06/09 11:56:36;;;;;;;8.30;2.00;;;23.20;96.60;;;;;;4959030;28;20253;-90
2022/06/09 11:59:20;;;;;;;5.67;1.73;;;23.00;96.20;;;;;;4958503;28;20210;-90
2022/06/09 12:01:51;;;;;;;5.63;1.93;;;23.20;96.90;;;;;;4958269;28;20178;-90
2022/06/09 12:04:29;;;;;;;8.10;1.97;;;23.40;96.70;;;;;;4958532;28;20195;-90
2022/06/09 12:07:06;;;;;;;7.33;2.20;;;23.70;96.00;;;;;;4958716;28;20178;-90
2022/06/09 12:09:46;;;;;;;7.90;1.87;;;23.90;93.90;;;;;;4958436;28;20197;-90
2022/06/09 12:12:39;;;;;;;5.57;1.93;;;23.90;94.60;;;;;;4958379;28;20171;-90
2022/06/09 12:15:14;;;;;;;10.07;2.50;;;23.90;94.80;;;;;;4958492;28;20673;-90
2022/06/09 12:17:57;;;;;;;11.07;2.43;;;23.70;94.70;;;;;;4958299;28;20245;-90
2022/06/09 12:20:38;;;;;;;8.60;2.30;;;23.60;95.30;;;;;;4958218;28;20312;-90
2022/06/09 12:23:52;;;;;;;6.33;2.43;;;23.50;95.50;;;;;;4958562;28;20178;-90
2022/06/09 12:26:21;;;;;;;8.67;2.27;;;23.40;96.00;;;;;;4916489;28;20178;-90
2022/06/09 12:28:49;;;;;;;10.33;2.17;;;23.30;96.40;;;;;;4958267;28;20525;-90
2022/06/09 12:31:23;;;;;;;10.33;2.27;;;23.40;96.30;;;;;;4957918;28;20251;-90
2022/06/09 12:33:56;;;;;;;8.73;1.93;;;23.30;94.90;;;;;;4958056;28;20194;-91
2022/06/09 12:36:48;;;;;;;6.27;2.13;;;23.40;94.70;;;;;;4958066;28;20205;-90
2022/06/09 12:39:21;;;;;;;8.57;2.30;;;23.30;95.10;;;;;;4958444;28;20667;-90
2022/06/09 12:42:33;;;;;;;9.43;2.20;;;23.20;95.50;;;;;;4958171;28;20278;-89
2022/06/09 12:45:07;;;;;;;7.73;2.50;;;23.10;95.40;;;;;;4880884;29;20269;-89
2022/06/09 12:47:33;;;;;;;7.77;2.67;;;22.70;96.00;;;;;;4946543;28;20590;-89
2022/06/09 12:50:19;;;;;;;8.23;2.37;;;22.60;95.70;;;;;;4957897;28;20178;-90
2022/06/09 12:52:45;;;;;;;6.50;2.60;;;22.70;96.20;;;;;;4957833;28;20178;-90
2022/06/09 12:55:19;;;;;;;9.77;2.50;;;23.10;95.90;;;;;;4957954;28;20218;-90
2022/06/09 12:57:50;;;;;;;7.93;2.07;;;23.50;95.30;;;;;;4958210;28;20178;-90
2022/06/09 13:00:21;;;;;;;9.17;2.37;;;24.00;95.00;;;;;;4957566;28;20212;-90
2022/06/09 13:02:48;;;;;;;6.10;2.30;;;24.50;94.70;;;;;;4957830;28;20180;-90
2022/06/09 13:05:34;;;;;;;7.37;1.97;;;25.00;93.40;;;;;;4957857;28;20262;-89
2022/06/09 13:08:23;;;;;;;6.50;2.30;;;25.50;92.60;;;;;;4957585;28;20177;-89
2022/06/09 13:11:02;;;;;;;9.57;2.47;;;26.10;91.90;;;;;;4957808;28;20213;-90
2022/06/09 13:13:44;;;;;;;8.80;2.37;;;25.80;92.00;;;;;;4958001;28;20177;-90
2022/06/09 13:16:23;;;;;;;6.27;1.77;;;25.60;92.30;;;;;;4957389;28;20292;-90
2022/06/09 13:18:55;;;;;;;8.70;1.70;;;25.50;92.10;;;;;;4957375;28;20665;-90
2022/06/09 13:21:25;;;;;;;5.80;1.70;;;25.40;91.00;;;;;;4957469;28;20203;-90
2022/06/09 13:23:56;;;;;;;8.80;1.80;;;25.80;90.30;;;;;;4957582;28;20185;-90
2022/06/09 13:26:26;;;;;;;4.40;1.30;;;26.90;89.80;;;;;;4957684;28;20631;-90
2022/06/09 13:28:57;;;;;;;5.70;1.47;;;28.30;86.40;;;;;;4957685;28;20188;-90
2022/06/09 13:31:41;;;;;;;10.73;1.67;;;29.60;83.50;;;;;;4957299;28;20643;-91